Time;durP1;ratioP1;P1;durP2;ratioP2;P2;SDS_P1;SDS_P2;PMS_P1;PMS_P2;Temp;Humidity;BMP_temperature;BMP_pressure;BME280_temperature;BME280_humidity;BME280_pressure;Samples;Min_cycle;Max_cycle;Signal;HPM_P1;HPM_P2
2023/10/25 00:01:20;;;;;;;16.60;7.60;;;9.80;99.90;;;;;;5009395;28;20504;-63
2023/10/25 00:03:45;;;;;;;14.55;8.07;;;9.80;99.90;;;;;;5009762;28;20080;-63
2023/10/25 00:06:11;;;;;;;15.07;7.90;;;9.70;99.90;;;;;;5028353;28;20045;-63
2023/10/25 00:08:37;;;;;;;14.48;7.80;;;9.70;99.90;;;;;;5026161;28;20041;-63
2023/10/25 00:11:05;;;;;;;14.70;7.40;;;9.70;99.90;;;;;;5025687;28;20037;-63
2023/10/25 00:13:31;;;;;;;16.75;7.47;;;9.70;99.90;;;;;;5024995;28;20532;-63
2023/10/25 00:15:57;;;;;;;13.88;7.50;;;9.70;99.90;;;;;;5023090;28;20121;-63
2023/10/25 00:18:24;;;;;;;13.93;7.20;;;9.70;99.90;;;;;;5028141;28;20124;-62
2023/10/25 00:20:51;;;;;;;16.15;6.80;;;9.70;99.90;;;;;;5027558;28;20041;-63
2023/10/25 00:23:18;;;;;;;15.43;7.13;;;9.70;99.90;;;;;;5045026;28;20408;-63
2023/10/25 00:25:44;;;;;;;16.00;7.00;;;9.60;99.90;;;;;;5028464;28;20117;-63
2023/10/25 00:28:11;;;;;;;12.55;6.85;;;9.60;99.90;;;;;;5029121;28;20128;-63
2023/10/25 00:30:37;;;;;;;12.93;6.47;;;9.60;99.90;;;;;;5030989;28;20406;-62
2023/10/25 00:33:03;;;;;;;11.00;6.35;;;9.60;99.90;;;;;;5026580;28;20053;-63
2023/10/25 00:35:29;;;;;;;12.77;6.55;;;9.60;99.90;;;;;;4995802;28;20053;-63
2023/10/25 00:37:55;;;;;;;14.70;6.78;;;9.60;99.90;;;;;;5021715;28;20049;-63
2023/10/25 00:40:20;;;;;;;14.27;6.75;;;9.60;99.90;;;;;;5033641;28;20080;-63
2023/10/25 00:42:46;;;;;;;15.30;6.05;;;9.60;99.90;;;;;;5021928;28;20037;-63
2023/10/25 00:45:13;;;;;;;12.57;6.30;;;9.50;99.90;;;;;;5006167;28;20981;-62
2023/10/25 00:47:40;;;;;;;15.05;6.93;;;9.50;99.90;;;;;;5034490;28;20061;-63
2023/10/25 00:50:08;;;;;;;12.57;6.80;;;9.60;99.90;;;;;;5041270;28;20053;-63
2023/10/25 00:52:33;;;;;;;13.32;6.28;;;9.50;99.90;;;;;;5039434;28;20048;-64
2023/10/25 00:54:59;;;;;;;12.95;6.55;;;9.50;99.90;;;;;;5039231;28;20041;-63
2023/10/25 00:57:25;;;;;;;8.35;6.07;;;9.50;99.90;;;;;;5042769;28;20053;-64
2023/10/25 00:59:51;;;;;;;10.38;7.07;;;9.50;99.90;;;;;;5041158;28;20047;-63
2023/10/25 01:02:18;;;;;;;12.32;6.35;;;9.40;99.90;;;;;;5042550;28;20049;-63
2023/10/25 01:04:45;;;;;;;13.40;7.03;;;9.40;99.90;;;;;;5042683;28;20056;-63
2023/10/25 01:07:10;;;;;;;14.43;6.53;;;9.40;99.90;;;;;;5042245;28;20036;-64
2023/10/25 01:09:36;;;;;;;9.88;6.13;;;9.40;99.90;;;;;;5042890;28;20053;-63
2023/10/25 01:12:02;;;;;;;15.43;6.15;;;9.40;99.90;;;;;;5034195;28;20044;-63
2023/10/25 01:14:31;;;;;;;11.45;6.07;;;9.30;99.90;;;;;;5049131;28;20506;-64
2023/10/25 01:16:56;;;;;;;10.77;5.78;;;9.30;99.90;;;;;;5031801;28;20090;-61
2023/10/25 01:19:22;;;;;;;15.85;6.03;;;9.30;99.90;;;;;;5049554;28;20539;-63
2023/10/25 01:21:48;;;;;;;13.32;6.03;;;9.30;99.90;;;;;;5043246;28;20053;-62
2023/10/25 01:24:14;;;;;;;14.73;6.60;;;9.30;99.90;;;;;;5034573;28;20037;-63
2023/10/25 01:26:41;;;;;;;12.98;6.40;;;9.30;99.90;;;;;;5032358;28;20040;-63
2023/10/25 01:29:07;;;;;;;11.02;6.30;;;9.30;99.90;;;;;;5028281;28;20041;-63
2023/10/25 01:31:32;;;;;;;13.88;6.72;;;9.30;99.90;;;;;;5021211;28;20041;-63
2023/10/25 01:33:59;;;;;;;12.52;6.88;;;9.20;99.90;;;;;;5030849;28;20043;-63
2023/10/25 01:36:25;;;;;;;12.88;6.88;;;9.20;99.90;;;;;;5050897;28;21428;-64
2023/10/25 01:38:50;;;;;;;14.48;6.88;;;9.20;99.90;;;;;;5041029;28;20119;-63
2023/10/25 01:41:16;;;;;;;13.68;6.90;;;9.20;99.90;;;;;;5015216;28;20045;-62
2023/10/25 01:43:43;;;;;;;14.10;6.60;;;9.20;99.90;;;;;;5049224;28;20527;-63
2023/10/25 01:46:08;;;;;;;14.70;7.10;;;9.20;99.90;;;;;;5041669;28;20036;-62
2023/10/25 01:48:38;;;;;;;13.40;6.45;;;9.10;99.90;;;;;;5032385;28;20049;-63
2023/10/25 01:51:09;;;;;;;11.73;7.05;;;9.10;99.90;;;;;;5032404;28;20083;-63
2023/10/25 01:53:35;;;;;;;16.08;7.05;;;9.10;99.90;;;;;;5036712;28;20076;-63
2023/10/25 01:56:01;;;;;;;10.52;7.07;;;9.10;99.90;;;;;;5030095;28;20535;-63
2023/10/25 01:58:27;;;;;;;14.15;6.47;;;9.10;99.90;;;;;;5030045;28;20037;-63
2023/10/25 02:00:53;;;;;;;10.18;6.50;;;9.00;99.90;;;;;;5030216;28;20487;-63
2023/10/25 02:03:19;;;;;;;11.00;6.07;;;9.00;99.90;;;;;;5046457;28;20048;-63
2023/10/25 02:05:44;;;;;;;16.55;6.95;;;9.00;99.90;;;;;;5028132;28;20052;-63
2023/10/25 02:08:10;;;;;;;14.57;6.68;;;9.00;99.90;;;;;;5022516;28;20048;-63
2023/10/25 02:10:36;;;;;;;11.85;7.07;;;9.00;99.90;;;;;;5021862;28;21999;-63
2023/10/25 02:13:02;;;;;;;12.90;7.30;;;9.00;99.90;;;;;;5039744;28;20045;-62
2023/10/25 02:15:28;;;;;;;15.00;6.60;;;9.00;99.90;;;;;;5038814;28;20049;-63
2023/10/25 02:17:53;;;;;;;16.63;7.07;;;9.00;99.90;;;;;;5035936;28;20045;-63
2023/10/25 02:20:19;;;;;;;14.88;6.88;;;8.90;99.90;;;;;;5021948;28;20044;-63
2023/10/25 02:22:45;;;;;;;11.82;7.40;;;8.90;99.90;;;;;;5019462;28;20064;-62
2023/10/25 02:25:11;;;;;;;12.25;6.97;;;8.90;99.90;;;;;;5040222;28;20556;-63
2023/10/25 02:27:37;;;;;;;12.70;7.60;;;8.90;99.90;;;;;;5022744;28;20040;-63
2023/10/25 02:30:04;;;;;;;14.55;7.07;;;8.90;99.90;;;;;;5040437;28;20055;-63
2023/10/25 02:32:30;;;;;;;14.88;7.70;;;8.80;99.90;;;;;;5021490;28;22006;-63
2023/10/25 02:34:56;;;;;;;14.73;7.65;;;8.80;99.90;;;;;;5039684;28;20040;-63
2023/10/25 02:37:22;;;;;;;10.73;7.72;;;8.80;99.90;;;;;;5045884;28;20114;-63
2023/10/25 02:39:47;;;;;;;11.88;7.32;;;8.80;99.90;;;;;;5049894;28;20090;-62
2023/10/25 02:42:13;;;;;;;15.82;7.82;;;8.80;99.90;;;;;;5032038;28;20450;-63
2023/10/25 02:44:39;;;;;;;19.23;8.27;;;8.80;99.90;;;;;;5047386;28;20484;-63
2023/10/25 02:47:06;;;;;;;18.13;8.32;;;8.80;99.90;;;;;;5026548;28;20089;-63
2023/10/25 02:49:33;;;;;;;14.90;8.05;;;8.80;99.90;;;;;;5026228;28;20121;-63
2023/10/25 02:51:59;;;;;;;16.90;8.15;;;8.70;99.90;;;;;;5025983;28;20128;-64
2023/10/25 02:54:25;;;;;;;20.65;8.50;;;8.80;99.90;;;;;;5021441;28;20124;-63
2023/10/25 02:56:51;;;;;;;18.95;8.18;;;8.70;99.90;;;;;;5042188;28;20045;-64
2023/10/25 02:59:16;;;;;;;16.38;8.02;;;8.80;99.90;;;;;;5042756;28;20052;-63
2023/10/25 03:01:42;;;;;;;14.75;8.45;;;8.70;99.90;;;;;;5027766;28;20125;-63
2023/10/25 03:04:08;;;;;;;16.40;8.65;;;8.70;99.90;;;;;;5024341;28;20038;-63
2023/10/25 03:06:34;;;;;;;18.45;8.30;;;8.70;99.90;;;;;;5011569;28;20034;-63
2023/10/25 03:08:59;;;;;;;18.48;8.77;;;8.60;99.90;;;;;;5026659;28;20061;-63
2023/10/25 03:11:25;;;;;;;23.75;9.07;;;8.60;99.90;;;;;;5026453;28;20045;-63
2023/10/25 03:13:51;;;;;;;14.75;8.57;;;8.60;99.90;;;;;;5042863;28;20128;-62
2023/10/25 03:16:17;;;;;;;25.40;9.57;;;8.60;99.90;;;;;;5026772;28;20072;-63
2023/10/25 03:18:42;;;;;;;15.90;9.00;;;8.60;99.90;;;;;;5028382;28;20045;-63
2023/10/25 03:21:08;;;;;;;17.15;8.75;;;8.60;99.90;;;;;;5014171;28;20143;-63
2023/10/25 03:23:34;;;;;;;14.60;8.65;;;8.50;99.90;;;;;;5025817;28;20045;-63
2023/10/25 03:26:07;;;;;;;14.68;9.55;;;8.60;99.90;;;;;;5026805;28;20120;-62
2023/10/25 03:28:33;;;;;;;17.80;8.90;;;8.50;99.90;;;;;;5025429;28;20041;-63
2023/10/25 03:31:06;;;;;;;16.35;9.05;;;8.50;99.90;;;;;;5028411;28;20043;-62
2023/10/25 03:33:32;;;;;;;15.25;8.38;;;8.50;99.90;;;;;;5029501;28;20041;-63
2023/10/25 03:35:58;;;;;;;18.85;9.15;;;8.50;99.90;;;;;;5026213;28;20484;-63
2023/10/25 03:38:23;;;;;;;19.15;9.10;;;8.50;99.90;;;;;;5017900;28;20049;-62
2023/10/25 03:40:58;;;;;;;16.98;9.32;;;8.40;99.90;;;;;;5010613;28;20849;-62
2023/10/25 03:43:24;;;;;;;18.77;9.52;;;8.50;99.90;;;;;;5017967;28;20045;-62
2023/10/25 03:45:50;;;;;;;19.77;10.30;;;8.40;99.90;;;;;;5019241;28;20092;-62
2023/10/25 03:48:16;;;;;;;19.20;10.27;;;8.40;99.90;;;;;;5016262;28;20099;-64
2023/10/25 03:50:41;;;;;;;21.77;10.45;;;8.40;99.90;;;;;;5017482;28;20128;-63
2023/10/25 03:53:07;;;;;;;18.85;9.90;;;8.30;99.90;;;;;;5032687;28;20064;-63
2023/10/25 03:55:33;;;;;;;15.43;10.25;;;8.40;99.90;;;;;;5019858;28;20056;-63
2023/10/25 03:57:58;;;;;;;20.50;10.60;;;8.30;99.90;;;;;;5024823;28;20476;-63
2023/10/25 04:00:24;;;;;;;18.67;10.88;;;8.40;99.90;;;;;;5023184;28;20521;-62
2023/10/25 04:02:50;;;;;;;20.85;11.73;;;8.30;99.90;;;;;;5020846;28;20068;-64
2023/10/25 04:05:16;;;;;;;18.85;11.35;;;8.30;99.90;;;;;;5020593;28;20047;-63
2023/10/25 04:07:41;;;;;;;21.25;11.40;;;8.30;99.90;;;;;;5027870;28;20045;-63
2023/10/25 04:10:08;;;;;;;18.08;11.82;;;8.30;99.90;;;;;;5032100;28;20033;-61
2023/10/25 04:12:33;;;;;;;21.30;11.63;;;8.30;99.90;;;;;;5033627;28;20046;-63
2023/10/25 04:14:59;;;;;;;22.85;11.68;;;8.30;99.90;;;;;;5013612;28;20037;-63
2023/10/25 04:17:25;;;;;;;23.77;11.55;;;8.30;99.90;;;;;;5031198;28;20427;-64
2023/10/25 04:19:50;;;;;;;18.02;12.10;;;8.30;99.90;;;;;;5030641;28;20060;-63
2023/10/25 04:22:16;;;;;;;22.92;11.63;;;8.20;99.90;;;;;;5028333;28;20037;-63
2023/10/25 04:24:42;;;;;;;18.17;11.73;;;8.20;99.90;;;;;;5029397;28;20041;-63
2023/10/25 04:27:08;;;;;;;20.35;11.65;;;8.20;99.90;;;;;;5029006;28;20034;-61
2023/10/25 04:29:33;;;;;;;19.73;12.40;;;8.20;99.90;;;;;;5031017;28;20168;-63
2023/10/25 04:31:59;;;;;;;25.17;12.13;;;8.20;99.90;;;;;;5029161;28;20513;-63
2023/10/25 04:34:25;;;;;;;18.85;11.02;;;8.20;99.90;;;;;;5030898;28;20041;-63
2023/10/25 04:36:51;;;;;;;19.90;11.00;;;8.20;99.90;;;;;;5031358;28;20075;-63
2023/10/25 04:39:17;;;;;;;18.00;10.52;;;8.20;99.90;;;;;;5029879;28;20041;-63
2023/10/25 04:41:43;;;;;;;19.95;11.43;;;8.20;99.90;;;;;;5024760;28;20045;-64
2023/10/25 04:44:08;;;;;;;20.90;11.90;;;8.20;99.90;;;;;;5030180;28;20160;-64
2023/10/25 04:46:35;;;;;;;17.70;10.82;;;8.20;99.90;;;;;;5030004;28;20114;-63
2023/10/25 04:49:01;;;;;;;18.13;11.13;;;8.20;99.90;;;;;;5018749;28;20615;-64
2023/10/25 04:51:27;;;;;;;19.08;11.20;;;8.20;99.90;;;;;;5032233;28;20063;-63
2023/10/25 04:53:52;;;;;;;18.75;10.27;;;8.20;99.90;;;;;;5030920;28;20042;-63
2023/10/25 04:56:23;;;;;;;20.88;10.65;;;8.20;99.90;;;;;;5029179;28;20041;-63
2023/10/25 04:58:48;;;;;;;21.00;11.30;;;8.20;99.90;;;;;;5041089;28;20076;-63
2023/10/25 05:01:15;;;;;;;19.30;11.13;;;8.10;99.90;;;;;;5050738;28;20084;-62
2023/10/25 05:03:43;;;;;;;19.20;10.55;;;8.20;99.90;;;;;;5052305;28;20045;-63
2023/10/25 05:06:10;;;;;;;21.63;11.23;;;8.10;99.90;;;;;;5014611;28;20048;-63
2023/10/25 05:08:36;;;;;;;18.92;11.20;;;8.10;99.90;;;;;;5049066;28;20131;-63
2023/10/25 05:11:06;;;;;;;15.98;10.50;;;8.10;99.90;;;;;;5031645;28;20502;-64
2023/10/25 05:13:32;;;;;;;18.65;10.68;;;8.10;99.90;;;;;;5029684;28;20056;-62
2023/10/25 05:15:59;;;;;;;18.85;10.65;;;8.10;99.90;;;;;;5032397;28;20040;-63
2023/10/25 05:18:26;;;;;;;20.67;10.43;;;8.10;99.90;;;;;;5049418;28;20355;-63
2023/10/25 05:20:58;;;;;;;17.50;10.60;;;8.10;99.90;;;;;;5041655;28;20048;-62
2023/10/25 05:23:31;;;;;;;18.92;10.57;;;8.00;99.90;;;;;;5030991;28;20047;-63
2023/10/25 05:26:02;;;;;;;18.27;10.80;;;8.00;99.90;;;;;;5041261;28;20323;-63
2023/10/25 05:28:30;;;;;;;17.42;9.88;;;8.00;99.90;;;;;;5049134;28;20119;-61
2023/10/25 05:31:00;;;;;;;18.80;10.13;;;8.00;99.90;;;;;;5046564;28;20041;-63
2023/10/25 05:33:27;;;;;;;16.73;9.80;;;7.90;99.90;;;;;;5049057;28;20048;-63
2023/10/25 05:35:53;;;;;;;16.42;9.75;;;7.90;99.90;;;;;;5041733;28;20507;-63
2023/10/25 05:38:19;;;;;;;17.48;9.70;;;7.90;99.90;;;;;;5028255;28;20044;-63
2023/10/25 05:40:47;;;;;;;16.95;9.50;;;7.90;99.90;;;;;;5031351;28;20579;-63
2023/10/25 05:43:15;;;;;;;21.92;9.55;;;7.90;99.90;;;;;;5050364;28;20190;-63
2023/10/25 05:45:42;;;;;;;15.57;9.38;;;7.80;99.90;;;;;;5031699;28;20048;-63
2023/10/25 05:48:11;;;;;;;14.45;9.23;;;7.80;99.90;;;;;;5030352;28;20491;-63
2023/10/25 05:50:37;;;;;;;15.88;9.40;;;7.80;99.90;;;;;;5043439;28;20045;-63
2023/10/25 05:53:03;;;;;;;18.67;9.25;;;7.80;99.90;;;;;;5025949;28;20396;-63
2023/10/25 05:55:29;;;;;;;14.50;9.13;;;7.80;99.90;;;;;;5041147;28;20052;-63
2023/10/25 05:57:55;;;;;;;15.52;9.35;;;7.80;99.90;;;;;;5032752;28;20041;-63
2023/10/25 06:00:21;;;;;;;19.42;9.48;;;7.70;99.90;;;;;;5031736;28;20048;-63
2023/10/25 06:02:49;;;;;;;11.30;8.48;;;7.70;99.90;;;;;;5014218;28;20037;-63
2023/10/25 06:05:17;;;;;;;15.52;9.15;;;7.70;99.90;;;;;;5028120;28;20045;-62
2023/10/25 06:07:43;;;;;;;14.55;8.75;;;7.70;99.90;;;;;;5044230;28;20400;-63
2023/10/25 06:10:10;;;;;;;15.70;9.10;;;7.70;99.90;;;;;;5050982;28;20468;-64
2023/10/25 06:12:36;;;;;;;14.80;9.20;;;7.60;99.90;;;;;;5030666;28;20476;-63
2023/10/25 06:15:04;;;;;;;16.02;9.13;;;7.60;99.90;;;;;;5030438;28;20462;-64
2023/10/25 06:17:30;;;;;;;14.95;8.82;;;7.60;99.90;;;;;;5030093;28;20044;-63
2023/10/25 06:19:55;;;;;;;17.80;9.20;;;7.60;99.90;;;;;;5047418;28;20107;-63
2023/10/25 06:22:21;;;;;;;16.27;8.60;;;7.60;99.90;;;;;;5049592;28;20032;-61
2023/10/25 06:24:47;;;;;;;19.98;9.38;;;7.60;99.90;;;;;;4987501;28;20411;-64
2023/10/25 06:27:13;;;;;;;18.58;9.30;;;7.60;99.90;;;;;;5029661;28;20492;-64
2023/10/25 06:29:38;;;;;;;16.58;8.85;;;7.60;99.90;;;;;;5030171;28;20032;-63
2023/10/25 06:32:05;;;;;;;19.35;8.98;;;7.60;99.90;;;;;;5029023;28;20048;-64
2023/10/25 06:34:30;;;;;;;17.55;8.35;;;7.60;99.90;;;;;;5047413;28;20099;-62
2023/10/25 06:36:56;;;;;;;15.40;8.32;;;7.60;99.90;;;;;;5041098;28;20120;-63
2023/10/25 06:39:23;;;;;;;13.65;8.40;;;7.60;99.90;;;;;;5039977;28;20044;-63
2023/10/25 06:41:49;;;;;;;15.23;8.40;;;7.60;99.90;;;;;;5044427;28;20041;-64
2023/10/25 06:44:15;;;;;;;12.43;8.32;;;7.60;99.90;;;;;;5027721;28;20053;-62
2023/10/25 06:46:42;;;;;;;17.23;8.60;;;7.60;99.90;;;;;;5039312;28;20037;-63
2023/10/25 06:49:08;;;;;;;14.40;8.82;;;7.60;99.90;;;;;;5023709;28;20526;-63
2023/10/25 06:51:35;;;;;;;18.33;8.38;;;7.60;99.90;;;;;;5027396;28;20118;-63
2023/10/25 06:54:01;;;;;;;19.02;8.80;;;7.60;99.90;;;;;;5011968;28;20037;-63
2023/10/25 06:56:29;;;;;;;17.98;8.05;;;7.60;99.90;;;;;;5046954;28;20037;-63
2023/10/25 06:58:55;;;;;;;17.85;8.60;;;7.60;99.90;;;;;;5043331;28;20197;-63
2023/10/25 07:01:25;;;;;;;16.80;8.82;;;7.60;99.90;;;;;;5048533;28;20037;-63
2023/10/25 07:03:54;;;;;;;14.93;8.25;;;7.60;99.90;;;;;;5047170;28;20091;-61
2023/10/25 07:06:19;;;;;;;17.67;8.90;;;7.60;99.90;;;;;;5022653;28;20116;-63
2023/10/25 07:08:48;;;;;;;16.10;8.43;;;7.60;99.90;;;;;;5046795;28;20071;-63
2023/10/25 07:11:14;;;;;;;19.50;8.88;;;7.70;99.90;;;;;;5030027;28;20033;-63
2023/10/25 07:13:40;;;;;;;14.60;8.60;;;7.70;99.90;;;;;;5039219;28;20053;-63
2023/10/25 07:16:07;;;;;;;11.85;7.97;;;7.70;99.90;;;;;;5043722;28;20040;-64
2023/10/25 07:18:32;;;;;;;17.10;8.73;;;7.70;99.90;;;;;;5047037;28;20114;-63
2023/10/25 07:20:58;;;;;;;14.13;8.65;;;7.70;99.90;;;;;;5030221;28;20033;-63
2023/10/25 07:23:24;;;;;;;16.35;9.02;;;7.70;99.90;;;;;;5012512;28;20037;-63
2023/10/25 07:25:51;;;;;;;16.10;8.18;;;7.70;99.90;;;;;;5046793;28;20112;-64
2023/10/25 07:28:17;;;;;;;19.27;8.82;;;7.80;99.90;;;;;;5049669;28;20063;-63
2023/10/25 07:30:43;;;;;;;14.85;7.88;;;7.80;99.90;;;;;;5047035;28;20037;-63
2023/10/25 07:33:10;;;;;;;16.27;8.65;;;7.80;99.90;;;;;;5015500;28;20044;-63
2023/10/25 07:35:35;;;;;;;18.77;9.20;;;7.80;99.90;;;;;;5029652;28;20049;-63
2023/10/25 07:38:01;;;;;;;15.32;8.35;;;7.80;99.90;;;;;;5028032;28;20098;-63
2023/10/25 07:40:27;;;;;;;13.18;8.00;;;7.80;99.90;;;;;;5049963;28;20059;-63
2023/10/25 07:42:52;;;;;;;19.30;8.95;;;7.80;99.90;;;;;;5045869;28;20051;-63
2023/10/25 07:45:18;;;;;;;14.45;8.48;;;7.90;99.90;;;;;;5046739;28;20460;-63
2023/10/25 07:47:44;;;;;;;12.52;8.25;;;7.90;99.90;;;;;;5029437;28;20057;-63
2023/10/25 07:50:10;;;;;;;15.80;8.93;;;7.90;99.90;;;;;;5024483;28;20156;-62
2023/10/25 07:52:36;;;;;;;17.63;8.70;;;7.90;99.90;;;;;;5030582;28;20076;-63
2023/10/25 07:55:04;;;;;;;18.67;8.60;;;8.00;99.90;;;;;;5039298;28;20049;-63
2023/10/25 07:57:30;;;;;;;21.15;9.45;;;8.00;99.90;;;;;;5029199;28;20041;-63
2023/10/25 07:59:56;;;;;;;14.80;8.55;;;8.10;99.90;;;;;;5028747;28;20091;-63
2023/10/25 08:02:22;;;;;;;14.80;8.88;;;8.00;99.90;;;;;;5007069;28;20052;-63
2023/10/25 08:04:48;;;;;;;17.55;9.32;;;8.10;99.90;;;;;;5021524;28;20462;-63
2023/10/25 08:07:13;;;;;;;18.92;8.63;;;8.10;99.90;;;;;;5039926;28;20044;-62
2023/10/25 08:09:42;;;;;;;15.10;8.45;;;8.10;99.90;;;;;;5020750;28;20132;-63
2023/10/25 08:12:08;;;;;;;19.42;9.05;;;8.20;99.90;;;;;;5021954;28;20423;-63
2023/10/25 08:14:35;;;;;;;19.27;8.30;;;8.20;99.90;;;;;;5021782;28;20061;-61
2023/10/25 08:17:01;;;;;;;13.63;8.35;;;8.20;99.90;;;;;;5037369;28;20060;-63
2023/10/25 08:19:27;;;;;;;17.83;8.77;;;8.30;99.90;;;;;;5040714;28;20491;-63
2023/10/25 08:21:53;;;;;;;18.40;9.07;;;8.30;99.90;;;;;;5038119;28;20049;-63
2023/10/25 08:24:18;;;;;;;17.48;8.73;;;8.40;99.90;;;;;;5033300;28;20456;-63
2023/10/25 08:26:45;;;;;;;13.07;8.68;;;8.40;99.90;;;;;;5019726;28;20128;-63
2023/10/25 08:29:11;;;;;;;13.88;8.82;;;8.40;99.90;;;;;;5019851;28;20138;-63
2023/10/25 08:31:37;;;;;;;15.40;8.02;;;8.50;99.90;;;;;;5043497;28;20377;-63
2023/10/25 08:34:02;;;;;;;14.52;8.77;;;8.60;99.90;;;;;;5046476;28;20037;-63
2023/10/25 08:36:30;;;;;;;13.98;8.10;;;8.60;99.90;;;;;;5046243;28;20400;-63
2023/10/25 08:38:56;;;;;;;13.40;7.72;;;8.70;99.90;;;;;;5038256;28;20044;-63
2023/10/25 08:41:25;;;;;;;15.23;8.00;;;8.70;99.90;;;;;;5028356;28;20048;-63
2023/10/25 08:43:51;;;;;;;11.82;7.85;;;8.80;99.90;;;;;;5049468;28;20044;-62
2023/10/25 08:46:18;;;;;;;17.25;8.05;;;8.90;99.90;;;;;;5034327;28;20045;-62
2023/10/25 08:48:44;;;;;;;14.38;7.38;;;9.00;99.90;;;;;;5023120;28;20084;-63
2023/10/25 08:51:13;;;;;;;11.93;7.43;;;9.00;99.90;;;;;;5042339;28;20534;-62
2023/10/25 08:53:41;;;;;;;12.68;7.45;;;9.00;99.90;;;;;;5046698;28;20045;-63
2023/10/25 08:56:07;;;;;;;15.82;7.80;;;9.10;99.90;;;;;;5041715;28;21725;-63
2023/10/25 08:58:33;;;;;;;16.65;7.75;;;9.20;99.90;;;;;;5034410;28;20045;-63
2023/10/25 09:00:58;;;;;;;12.00;7.15;;;9.20;99.90;;;;;;5015328;28;20052;-63
2023/10/25 09:03:30;;;;;;;14.60;7.35;;;9.20;99.90;;;;;;5027436;28;20052;-63
2023/10/25 09:05:57;;;;;;;16.92;7.60;;;9.30;99.90;;;;;;5049637;28;20070;-63
2023/10/25 09:08:24;;;;;;;12.52;7.60;;;9.30;99.90;;;;;;5048499;28;20066;-63
2023/10/25 09:10:57;;;;;;;13.82;7.97;;;9.40;99.90;;;;;;5052075;28;20049;-63
2023/10/25 09:13:26;;;;;;;11.43;7.07;;;9.40;99.90;;;;;;5033012;28;20044;-63
2023/10/25 09:15:52;;;;;;;14.27;7.53;;;9.50;99.90;;;;;;5026635;28;20041;-63
2023/10/25 09:18:17;;;;;;;12.85;7.18;;;9.50;99.90;;;;;;5049051;28;20627;-63
2023/10/25 09:20:49;;;;;;;11.85;7.13;;;9.60;99.90;;;;;;5029010;28;20052;-63
2023/10/25 09:23:16;;;;;;;13.50;6.53;;;9.60;99.90;;;;;;5040264;28;20048;-63
2023/10/25 09:25:43;;;;;;;8.32;6.93;;;9.70;99.90;;;;;;5034801;28;20052;-63
2023/10/25 09:28:27;;;;;;;10.05;6.90;;;9.70;99.90;;;;;;5048885;28;20044;-63
2023/10/25 09:30:54;;;;;;;14.57;6.90;;;9.80;99.90;;;;;;5050114;28;20037;-63
2023/10/25 09:33:19;;;;;;;12.50;6.55;;;9.90;99.90;;;;;;5030638;28;20036;-63
2023/10/25 09:35:46;;;;;;;11.35;6.85;;;9.90;99.90;;;;;;5038084;28;21233;-63
2023/10/25 09:38:12;;;;;;;12.23;6.72;;;10.00;99.90;;;;;;4997015;28;20059;-63
2023/10/25 09:40:41;;;;;;;10.55;6.85;;;10.00;99.90;;;;;;5010070;28;20122;-63
2023/10/25 09:43:14;;;;;;;9.88;6.55;;;10.00;99.90;;;;;;5020619;28;20523;-61
2023/10/25 09:45:42;;;;;;;10.75;6.50;;;10.10;99.90;;;;;;5023468;28;20044;-63
2023/10/25 09:48:13;;;;;;;16.30;6.57;;;10.20;99.90;;;;;;5040541;28;20424;-63
2023/10/25 09:50:53;;;;;;;13.85;6.90;;;10.10;99.90;;;;;;5029040;28;20073;-63
2023/10/25 09:53:28;;;;;;;14.10;6.97;;;10.20;99.90;;;;;;5010167;28;20185;-63
2023/10/25 09:56:00;;;;;;;9.95;6.25;;;10.20;99.90;;;;;;5038314;28;20488;-63
2023/10/25 09:58:28;;;;;;;14.52;6.93;;;10.30;99.90;;;;;;5038708;28;20049;-63
2023/10/25 10:00:55;;;;;;;13.98;6.68;;;10.20;99.90;;;;;;5043546;28;20650;-63
2023/10/25 10:03:32;;;;;;;11.60;6.18;;;10.30;99.90;;;;;;5028260;28;20480;-63
2023/10/25 10:06:16;;;;;;;12.00;6.57;;;10.40;99.90;;;;;;5027163;28;20045;-64
2023/10/25 10:08:52;;;;;;;11.30;6.10;;;10.40;99.90;;;;;;5026596;28;20037;-63
2023/10/25 10:11:25;;;;;;;13.55;6.25;;;10.50;99.90;;;;;;5010918;28;20109;-63
2023/10/25 10:14:29;;;;;;;13.98;6.35;;;10.50;99.90;;;;;;5029723;28;20049;-62
2023/10/25 10:16:59;;;;;;;;;;;10.60;99.90;;;;;;5020831;28;20054;-62
2023/10/25 10:19:24;;;;;;;9.38;6.00;;;10.70;99.90;;;;;;5017516;28;20666;-63
2023/10/25 10:22:05;;;;;;;10.25;6.32;;;10.70;99.90;;;;;;5019373;28;20057;-63
2023/10/25 10:24:39;;;;;;;13.00;6.43;;;10.80;99.90;;;;;;5032398;28;20377;-63
2023/10/25 10:27:05;;;;;;;9.05;6.07;;;10.90;99.90;;;;;;5031938;28;20060;-63
2023/10/25 10:29:31;;;;;;;9.98;5.93;;;10.90;99.90;;;;;;5017661;28;20188;-63
2023/10/25 10:32:02;;;;;;;10.13;6.00;;;10.90;99.90;;;;;;5022110;28;20034;-63
2023/10/25 10:34:57;;;;;;;12.07;6.75;;;11.00;99.90;;;;;;5032105;28;20104;-63
2023/10/25 10:37:25;;;;;;;14.43;6.18;;;11.10;99.90;;;;;;5016844;28;20064;-62
2023/10/25 10:39:57;;;;;;;10.70;5.55;;;11.20;99.90;;;;;;5003622;28;20609;-63
2023/10/25 10:42:28;;;;;;;9.13;5.55;;;11.20;99.90;;;;;;5007969;28;20041;-64
2023/10/25 10:45:02;;;;;;;7.57;5.32;;;11.30;99.90;;;;;;5016039;28;20049;-63
2023/10/25 10:48:06;;;;;;;9.00;4.95;;;11.30;99.90;;;;;;5020053;28;20134;-62
2023/10/25 10:50:31;;;;;;;;;;;11.40;99.90;;;;;;5042421;28;20432;-63
2023/10/25 10:52:59;;;;;;;12.55;5.07;;;11.40;99.90;;;;;;5026821;28;20031;-63
2023/10/25 10:55:26;;;;;;;11.30;5.32;;;11.50;99.90;;;;;;5047403;28;20388;-63
2023/10/25 10:57:52;;;;;;;10.93;5.60;;;11.60;99.90;;;;;;5046565;28;20056;-63
2023/10/25 11:00:18;;;;;;;9.02;5.00;;;11.60;99.90;;;;;;5030143;28;20044;-63
2023/10/25 11:02:51;;;;;;;8.85;4.97;;;11.70;99.90;;;;;;5029437;28;20289;-63
2023/10/25 11:05:24;;;;;;;9.68;5.75;;;11.80;99.90;;;;;;5039036;28;20099;-64
2023/10/25 11:07:51;;;;;;;29.02;7.00;;;11.80;99.90;;;;;;5048570;28;20499;-63
2023/10/25 11:10:18;;;;;;;26.05;7.85;;;11.90;99.90;;;;;;5028700;28;20044;-63
2023/10/25 11:12:45;;;;;;;12.00;5.95;;;12.00;99.90;;;;;;5022091;28;20051;-63
2023/10/25 11:15:11;;;;;;;12.95;6.20;;;12.00;99.90;;;;;;5039174;28;20613;-61
2023/10/25 11:17:38;;;;;;;12.35;6.07;;;12.00;99.90;;;;;;5038584;28;20051;-63
2023/10/25 11:20:05;;;;;;;12.65;5.80;;;12.20;99.90;;;;;;5043187;28;20894;-63
2023/10/25 11:22:31;;;;;;;12.30;6.05;;;12.20;99.90;;;;;;5036731;28;20120;-63
2023/10/25 11:24:58;;;;;;;12.02;5.95;;;12.30;99.90;;;;;;5036015;28;20704;-63
2023/10/25 11:27:34;;;;;;;12.98;6.25;;;12.30;99.90;;;;;;5038368;28;20135;-63
2023/10/25 11:30:00;;;;;;;13.15;6.50;;;12.30;99.90;;;;;;5036493;28;20119;-63
2023/10/25 11:32:30;;;;;;;14.57;6.22;;;12.40;99.90;;;;;;4999463;28;20047;-63
2023/10/25 11:34:59;;;;;;;8.80;6.15;;;12.40;99.90;;;;;;5039886;28;20602;-63
2023/10/25 11:37:43;;;;;;;10.50;6.30;;;12.40;99.90;;;;;;5037415;28;20518;-63
2023/10/25 11:40:09;;;;;;;12.18;5.90;;;12.40;99.90;;;;;;5024517;28;20041;-62
2023/10/25 11:42:35;;;;;;;8.82;5.68;;;12.40;99.90;;;;;;5039266;28;20484;-62
2023/10/25 11:45:05;;;;;;;10.75;6.40;;;12.40;99.90;;;;;;5027543;28;20049;-63
2023/10/25 11:47:35;;;;;;;12.93;6.13;;;12.40;99.90;;;;;;5016531;28;20080;-63
2023/10/25 11:50:03;;;;;;;14.60;6.45;;;12.50;99.90;;;;;;5020177;28;20077;-63
2023/10/25 11:52:31;;;;;;;15.25;6.95;;;12.50;99.90;;;;;;5015643;28;20049;-63
2023/10/25 11:54:59;;;;;;;10.38;6.55;;;12.50;99.90;;;;;;5022455;28;20042;-63
2023/10/25 11:57:29;;;;;;;12.88;6.97;;;12.50;99.90;;;;;;5037286;28;20385;-63
2023/10/25 11:59:55;;;;;;;11.95;5.90;;;12.50;99.90;;;;;;5033007;28;20041;-62
2023/10/25 12:02:26;;;;;;;9.27;6.45;;;12.60;99.90;;;;;;5018583;28;20416;-63
2023/10/25 12:04:52;;;;;;;9.48;5.53;;;12.60;99.90;;;;;;5028855;28;20139;-63
2023/10/25 12:07:21;;;;;;;11.88;6.35;;;12.60;99.90;;;;;;4999071;28;20060;-63
2023/10/25 12:09:47;;;;;;;10.88;5.65;;;12.60;99.90;;;;;;5017248;28;20049;-63
2023/10/25 12:12:13;;;;;;;9.63;5.82;;;12.60;99.90;;;;;;5033290;28;20053;-63
2023/10/25 12:14:39;;;;;;;10.05;5.72;;;12.60;99.90;;;;;;5027056;28;20042;-63
2023/10/25 12:17:06;;;;;;;10.10;5.80;;;12.70;99.90;;;;;;5024488;28;20049;-63
2023/10/25 12:19:35;;;;;;;8.38;5.35;;;12.70;99.90;;;;;;5030990;28;20049;-63
2023/10/25 12:22:05;;;;;;;10.40;5.35;;;12.60;99.90;;;;;;5045397;28;20042;-63
2023/10/25 12:24:32;;;;;;;10.75;5.32;;;12.60;99.90;;;;;;5039312;28;20065;-63
2023/10/25 12:26:58;;;;;;;7.03;5.07;;;12.60;99.90;;;;;;5029102;28;20045;-63
2023/10/25 12:29:25;;;;;;;11.40;4.90;;;12.60;99.90;;;;;;5013425;28;20033;-63
2023/10/25 12:31:50;;;;;;;6.82;4.40;;;12.60;99.90;;;;;;5023365;28;20045;-63
2023/10/25 12:34:16;;;;;;;8.30;4.47;;;12.60;99.90;;;;;;5020604;28;20420;-63
2023/10/25 12:36:42;;;;;;;9.80;4.55;;;12.50;99.90;;;;;;5021974;28;20056;-63
2023/10/25 12:39:08;;;;;;;12.52;4.68;;;12.50;99.90;;;;;;5018192;28;20063;-63
2023/10/25 12:41:34;;;;;;;11.10;4.53;;;12.50;99.90;;;;;;5020062;28;20041;-63
2023/10/25 12:44:04;;;;;;;8.73;4.95;;;12.40;99.90;;;;;;5031440;28;20490;-63
2023/10/25 12:46:36;;;;;;;10.00;4.60;;;12.40;99.90;;;;;;5029078;28;20056;-63